createdAt,value
2022-10-01T00:02:03.129Z,16.88
2022-10-01T00:04:31.808Z,16.89
2022-10-01T00:07:03.118Z,16.84
2022-10-01T00:09:31.375Z,16.87
2022-10-01T00:11:59.790Z,16.85
2022-10-01T00:14:27.669Z,16.86
2022-10-01T00:16:55.237Z,16.84
2022-10-01T00:19:22.939Z,16.85
2022-10-01T00:21:51.650Z,16.89
2022-10-01T00:24:19.145Z,16.87
2022-10-01T00:26:48.100Z,16.93
2022-10-01T00:29:15.885Z,16.93
2022-10-01T00:31:43.499Z,16.97
2022-10-01T00:34:15.241Z,16.92
2022-10-01T00:36:42.546Z,16.87
2022-10-01T00:39:12.852Z,16.89
2022-10-01T00:41:40.536Z,16.91
2022-10-01T00:44:32.828Z,16.81
2022-10-01T00:47:08.410Z,16.79
2022-10-01T00:49:40.894Z,16.83
2022-10-01T00:52:13.857Z,16.88
2022-10-01T00:54:49.305Z,16.85
2022-10-01T00:57:21.911Z,16.82
2022-10-01T00:59:51.540Z,16.86
2022-10-01T01:02:18.831Z,16.86
2022-10-01T01:04:46.445Z,16.89
2022-10-01T01:07:14.776Z,16.88
2022-10-01T01:09:47.139Z,16.84
2022-10-01T01:12:30.507Z,16.88
2022-10-01T01:15:15.156Z,16.85
2022-10-01T01:17:54.717Z,16.91
2022-10-01T01:21:11.506Z,16.93
2022-10-01T01:24:32.200Z,16.92
2022-10-01T01:27:18.958Z,16.97
2022-10-01T01:30:00.803Z,17.00
2022-10-01T01:32:35.012Z,16.96
2022-10-01T01:35:08.002Z,16.91
2022-10-01T01:37:41.783Z,16.98
2022-10-01T01:40:13.878Z,16.91
2022-10-01T01:42:45.077Z,16.86
2022-10-01T01:45:19.812Z,16.94
2022-10-01T01:47:48.541Z,16.97
2022-10-01T01:50:17.857Z,17.00
2022-10-01T01:52:45.938Z,17.06
2022-10-01T01:55:14.119Z,17.05
2022-10-01T01:57:44.334Z,17.05
2022-10-01T02:00:16.106Z,17.03
2022-10-01T02:02:50.189Z,16.98
2022-10-01T02:05:23.307Z,16.97
2022-10-01T02:08:35.832Z,16.80
2022-10-01T02:11:19.782Z,16.58
2022-10-01T02:14:02.029Z,16.52
2022-10-01T02:16:46.011Z,16.53
2022-10-01T02:19:23.716Z,16.54
2022-10-01T02:22:00.376Z,16.52
2022-10-01T02:24:39.146Z,16.55
2022-10-01T02:27:13.623Z,16.54
2022-10-01T02:29:43.438Z,16.52
2022-10-01T02:32:15.931Z,16.51
2022-10-01T02:34:49.329Z,16.49
2022-10-01T02:37:21.375Z,16.44
2022-10-01T02:39:52.077Z,16.40
2022-10-01T02:42:22.134Z,16.31
2022-10-01T02:44:53.721Z,16.22
2022-10-01T02:47:34.141Z,16.14
2022-10-01T02:50:02.945Z,16.09
2022-10-01T02:52:40.400Z,16.04
2022-10-01T02:55:14.889Z,16.06
2022-10-01T02:57:43.156Z,16.05
2022-10-01T03:00:14.628Z,16.10
2022-10-01T03:02:43.418Z,16.02
2022-10-01T03:05:10.816Z,16.00
2022-10-01T03:07:39.985Z,15.98
2022-10-01T03:10:09.701Z,15.95
2022-10-01T03:12:38.006Z,15.88
2022-10-01T03:15:07.123Z,15.83
2022-10-01T03:17:36.115Z,15.76
2022-10-01T03:20:06.831Z,15.67
2022-10-01T03:22:34.791Z,15.72
2022-10-01T03:25:02.155Z,15.64
2022-10-01T03:27:29.529Z,15.68
2022-10-01T03:29:56.950Z,15.71
2022-10-01T03:32:24.223Z,15.70
2022-10-01T03:34:51.469Z,15.55
2022-10-01T03:37:20.076Z,15.48
2022-10-01T03:39:47.547Z,15.46
2022-10-01T03:42:16.666Z,15.44
2022-10-01T03:44:44.201Z,15.41
2022-10-01T03:47:11.862Z,15.35
2022-10-01T03:49:39.189Z,15.22
2022-10-01T03:52:06.762Z,15.23
2022-10-01T03:54:35.434Z,15.09
2022-10-01T03:57:02.718Z,15.05
2022-10-01T03:59:29.992Z,15.01
2022-10-01T04:01:57.389Z,14.95
2022-10-01T04:04:24.792Z,15.01
2022-10-01T04:06:52.103Z,15.01
2022-10-01T04:09:19.346Z,15.00
2022-10-01T04:11:48.257Z,14.96
2022-10-01T04:14:15.529Z,14.92
2022-10-01T04:16:43.423Z,14.86
2022-10-01T04:19:10.701Z,14.82
2022-10-01T04:21:39.067Z,14.82
2022-10-01T04:24:06.831Z,14.83
2022-10-01T04:26:34.232Z,14.53
2022-10-01T04:29:02.836Z,14.48
2022-10-01T04:31:35.074Z,14.57
2022-10-01T04:34:03.724Z,14.43
2022-10-01T04:36:31.182Z,14.48
2022-10-01T04:39:02.119Z,14.48
2022-10-01T04:41:31.140Z,14.38
2022-10-01T04:43:59.818Z,14.36
2022-10-01T04:46:30.073Z,14.24
2022-10-01T04:48:57.709Z,14.34
2022-10-01T04:51:25.403Z,14.31
2022-10-01T04:53:52.734Z,14.34
2022-10-01T04:56:19.990Z,14.24
2022-10-01T04:58:48.251Z,14.22
2022-10-01T05:01:15.572Z,14.30
2022-10-01T05:03:44.603Z,14.28
2022-10-01T05:06:11.829Z,14.36
2022-10-01T05:08:39.178Z,14.38
2022-10-01T05:11:06.668Z,14.47
2022-10-01T05:13:33.977Z,14.49
2022-10-01T05:16:03.755Z,14.51
2022-10-01T05:18:31.736Z,14.54
2022-10-01T05:21:05.570Z,14.53
2022-10-01T05:23:33.294Z,14.65
2022-10-01T05:26:00.900Z,14.67
2022-10-01T05:28:28.252Z,14.65
2022-10-01T05:30:59.389Z,14.69
2022-10-01T05:33:27.036Z,14.78
2022-10-01T05:35:54.343Z,14.78
2022-10-01T05:38:23.346Z,14.86
2022-10-01T05:40:50.575Z,14.87
2022-10-01T05:43:18.699Z,14.91
2022-10-01T05:45:46.026Z,15.03
2022-10-01T05:48:13.423Z,15.03
2022-10-01T05:50:42.322Z,15.10
2022-10-01T05:53:12.111Z,15.09
2022-10-01T05:55:40.840Z,15.09
2022-10-01T05:58:11.775Z,15.07
2022-10-01T06:00:41.703Z,15.11
2022-10-01T06:03:13.088Z,15.15
2022-10-01T06:05:40.628Z,15.13
2022-10-01T06:08:11.790Z,15.09
2022-10-01T06:10:41.054Z,15.05
2022-10-01T06:13:08.469Z,15.07
2022-10-01T06:15:38.956Z,15.08
2022-10-01T06:18:08.752Z,15.04
2022-10-01T06:20:36.628Z,15.10
2022-10-01T06:23:11.341Z,15.14
2022-10-01T06:25:41.951Z,14.98
2022-10-01T06:28:12.679Z,14.96
2022-10-01T06:30:40.430Z,14.97
2022-10-01T06:33:10.872Z,14.92
2022-10-01T06:35:43.211Z,14.96
2022-10-01T06:38:11.428Z,14.93
2022-10-01T06:40:40.833Z,14.93
2022-10-01T06:43:09.194Z,14.96
2022-10-01T06:45:40.008Z,15.01
2022-10-01T06:48:09.783Z,15.01
2022-10-01T06:50:37.031Z,14.95
2022-10-01T06:53:04.989Z,14.96
2022-10-01T06:55:36.376Z,14.98
2022-10-01T06:58:08.208Z,14.98
2022-10-01T07:00:39.041Z,15.11
2022-10-01T07:03:11.076Z,15.06
2022-10-01T07:05:38.967Z,14.99
2022-10-01T07:08:07.346Z,14.96
2022-10-01T07:10:35.423Z,15.06
2022-10-01T07:13:09.801Z,15.14
2022-10-01T07:15:38.043Z,15.29
2022-10-01T07:18:06.320Z,15.35
2022-10-01T07:20:36.000Z,15.40
2022-10-01T07:23:03.524Z,15.35
2022-10-01T07:25:31.313Z,15.38
2022-10-01T07:28:02.207Z,15.33
2022-10-01T07:30:32.829Z,15.34
2022-10-01T07:33:00.148Z,15.47
2022-10-01T07:35:28.497Z,15.55
2022-10-01T07:37:55.715Z,15.66
2022-10-01T07:40:23.210Z,15.64
2022-10-01T07:42:56.338Z,15.66
2022-10-01T07:45:25.056Z,15.55
2022-10-01T07:47:55.040Z,15.40
2022-10-01T07:50:23.418Z,15.47
2022-10-01T07:52:54.316Z,15.63
2022-10-01T07:55:22.588Z,15.69
2022-10-01T07:57:53.100Z,15.86
2022-10-01T08:00:21.948Z,15.98
2022-10-01T08:02:50.751Z,16.04
2022-10-01T08:05:21.766Z,16.05
2022-10-01T08:07:50.922Z,16.13
2022-10-01T08:10:20.555Z,16.22
2022-10-01T08:12:47.984Z,16.27
2022-10-01T08:15:18.049Z,16.26
2022-10-01T08:17:45.632Z,16.32
2022-10-01T08:20:15.377Z,16.44
2022-10-01T08:22:44.047Z,16.58
2022-10-01T08:25:11.414Z,16.66
2022-10-01T08:27:38.851Z,16.79
2022-10-01T08:30:07.990Z,16.93
2022-10-01T08:32:35.262Z,16.96
2022-10-01T08:35:04.260Z,17.06
2022-10-01T08:37:31.554Z,17.11
2022-10-01T08:40:00.476Z,17.05
2022-10-01T08:42:54.033Z,17.07
2022-10-01T08:45:28.421Z,17.17
2022-10-01T08:48:05.011Z,17.24
2022-10-01T08:50:44.592Z,17.23
2022-10-01T08:53:24.114Z,17.26
2022-10-01T08:55:56.150Z,17.29
2022-10-01T08:58:35.320Z,17.40
2022-10-01T09:01:03.000Z,17.54
2022-10-01T09:03:32.524Z,17.60
2022-10-01T09:06:18.042Z,17.64
2022-10-01T09:09:06.649Z,17.71
2022-10-01T09:12:04.318Z,17.76
2022-10-01T09:15:08.809Z,17.87
2022-10-01T09:18:03.590Z,17.95
2022-10-01T09:20:38.311Z,18.18
2022-10-01T09:23:23.093Z,18.36
2022-10-01T09:25:51.897Z,18.60
2022-10-01T09:28:24.914Z,18.82
2022-10-01T09:31:03.950Z,18.93
2022-10-01T09:33:36.218Z,19.06
2022-10-01T09:36:18.229Z,19.22
2022-10-01T09:38:54.987Z,19.46
2022-10-01T09:41:23.194Z,20.02
2022-10-01T09:43:51.996Z,20.41
2022-10-01T09:46:20.157Z,20.73
2022-10-01T09:48:57.489Z,21.08
2022-10-01T09:51:36.847Z,21.67
2022-10-01T09:54:19.262Z,22.21
2022-10-01T09:56:54.821Z,22.77
2022-10-01T09:59:31.709Z,23.37
2022-10-01T10:02:02.246Z,23.41
2022-10-01T10:04:30.091Z,23.28
2022-10-01T10:07:03.028Z,23.05
2022-10-01T10:09:33.004Z,22.82
2022-10-01T10:12:01.932Z,22.73
2022-10-01T10:14:35.369Z,22.60
2022-10-01T10:17:11.173Z,22.81
2022-10-01T10:19:40.416Z,23.15
2022-10-01T10:22:23.207Z,23.40
2022-10-01T10:24:52.555Z,23.51
2022-10-01T10:27:26.795Z,23.44
2022-10-01T10:30:13.538Z,23.34
2022-10-01T10:32:43.001Z,23.29
2022-10-01T10:35:17.352Z,23.21
2022-10-01T10:37:49.699Z,23.09
2022-10-01T10:40:22.765Z,23.02
2022-10-01T10:42:56.088Z,22.92
2022-10-01T10:45:33.657Z,22.84
2022-10-01T10:48:04.654Z,22.78
2022-10-01T10:50:37.214Z,22.76
2022-10-01T10:53:22.625Z,22.92
2022-10-01T10:56:02.377Z,23.05
2022-10-01T10:58:34.193Z,23.00
2022-10-01T11:01:10.364Z,22.69
2022-10-01T11:03:46.396Z,22.50
2022-10-01T11:06:18.037Z,22.40
2022-10-01T11:08:57.260Z,22.38
2022-10-01T11:11:55.180Z,22.44
2022-10-01T11:14:47.864Z,22.60
2022-10-01T11:17:43.757Z,22.66
2022-10-01T11:20:33.661Z,22.75
2022-10-01T11:23:37.648Z,22.79
2022-10-01T11:26:24.512Z,22.78
2022-10-01T11:29:12.205Z,22.82
2022-10-01T11:31:52.806Z,22.80
2022-10-01T11:35:04.641Z,22.82
2022-10-01T11:37:53.426Z,22.90
2022-10-01T11:40:27.299Z,23.03
2022-10-01T11:43:05.287Z,23.07
2022-10-01T11:45:42.340Z,23.12
2022-10-01T11:48:19.293Z,23.17
2022-10-01T11:51:05.781Z,23.17
2022-10-01T11:53:45.387Z,23.23
2022-10-01T11:56:38.257Z,23.26
2022-10-01T11:59:13.732Z,23.22
2022-10-01T12:01:47.775Z,23.22
2022-10-01T12:04:32.235Z,23.15
2022-10-01T12:07:13.696Z,23.11
2022-10-01T12:09:58.242Z,23.22
2022-10-01T12:12:30.080Z,23.49
2022-10-01T12:15:09.366Z,23.83
2022-10-01T12:17:45.566Z,23.91
2022-10-01T12:20:25.017Z,23.82
2022-10-01T12:22:56.367Z,23.75
2022-10-01T12:25:36.111Z,23.55
2022-10-01T12:28:12.521Z,23.41
2022-10-01T12:30:49.326Z,23.27
2022-10-01T12:33:56.341Z,22.77
2022-10-01T12:36:38.583Z,22.67
2022-10-01T12:39:34.225Z,22.58
2022-10-01T12:42:25.501Z,22.51
2022-10-01T12:45:05.781Z,22.38
2022-10-01T12:47:55.816Z,22.08
2022-10-01T12:50:39.896Z,21.81
2022-10-01T12:53:30.055Z,21.71
2022-10-01T12:56:17.390Z,21.76
2022-10-01T12:59:09.530Z,21.84
2022-10-01T13:01:56.885Z,21.89
2022-10-01T13:04:56.594Z,21.85
2022-10-01T13:07:49.131Z,21.73
2022-10-01T13:10:46.103Z,21.60
2022-10-01T13:13:21.548Z,21.49
2022-10-01T13:15:55.401Z,21.45
2022-10-01T13:18:39.908Z,21.41
2022-10-01T13:21:19.233Z,21.42
2022-10-01T13:23:53.503Z,21.39
2022-10-01T13:26:33.078Z,21.43
2022-10-01T13:29:41.751Z,21.53
2022-10-01T13:32:29.569Z,21.96
2022-10-01T13:34:59.614Z,22.42
2022-10-01T13:37:37.558Z,22.96
2022-10-01T13:40:25.580Z,23.75
2022-10-01T13:42:57.277Z,24.38
2022-10-01T13:45:39.344Z,24.93
2022-10-01T13:48:16.939Z,25.68
2022-10-01T13:50:58.288Z,26.41
2022-10-01T13:53:28.976Z,26.68
2022-10-01T13:55:58.658Z,26.71
2022-10-01T13:58:36.384Z,26.68
2022-10-01T14:01:27.876Z,26.53
2022-10-01T14:04:05.541Z,26.38
2022-10-01T14:06:44.211Z,26.28
2022-10-01T14:09:19.353Z,26.29
2022-10-01T14:12:10.843Z,25.95
2022-10-01T14:15:00.862Z,25.41
2022-10-01T14:17:33.473Z,24.87
2022-10-01T14:20:02.489Z,24.48
2022-10-01T14:22:52.652Z,24.06
2022-10-01T14:25:39.108Z,23.74
2022-10-01T14:28:27.763Z,23.46
2022-10-01T14:31:07.029Z,23.23
2022-10-01T14:34:13.119Z,22.96
2022-10-01T14:36:45.291Z,22.83
2022-10-01T14:39:16.695Z,22.69
2022-10-01T14:41:45.581Z,22.63
2022-10-01T14:44:23.008Z,22.60
2022-10-01T14:46:51.475Z,22.60
2022-10-01T14:49:27.064Z,22.54
2022-10-01T14:52:00.761Z,22.53
2022-10-01T14:54:31.226Z,22.54
2022-10-01T14:56:59.670Z,22.57
2022-10-01T14:59:35.489Z,22.57
2022-10-01T15:02:17.349Z,22.53
2022-10-01T15:04:47.820Z,22.51
2022-10-01T15:07:17.140Z,22.50
2022-10-01T15:09:45.527Z,22.49
2022-10-01T15:12:15.800Z,22.53
2022-10-01T15:14:44.896Z,22.58
2022-10-01T15:17:21.331Z,22.62
2022-10-01T15:19:54.876Z,22.63
2022-10-01T15:22:27.361Z,22.59
2022-10-01T15:24:59.616Z,22.47
2022-10-01T15:27:27.642Z,22.34
2022-10-01T15:29:58.819Z,22.23
2022-10-01T15:32:28.192Z,22.12
2022-10-01T15:35:01.093Z,22.01
2022-10-01T15:37:34.815Z,21.90
2022-10-01T15:40:05.954Z,21.82
2022-10-01T15:42:35.337Z,21.77
2022-10-01T15:45:25.510Z,21.70
2022-10-01T15:47:56.831Z,21.72
2022-10-01T15:50:29.958Z,21.68
2022-10-01T15:53:14.123Z,21.64
2022-10-01T15:55:46.133Z,21.57
2022-10-01T15:58:20.011Z,21.54
2022-10-01T16:01:00.626Z,21.47
2022-10-01T16:03:32.978Z,21.49
2022-10-01T16:06:04.190Z,21.49
2022-10-01T16:08:39.317Z,21.51
2022-10-01T16:11:19.288Z,21.50
2022-10-01T16:13:49.040Z,21.51
2022-10-01T16:16:31.095Z,21.42
2022-10-01T16:20:04.500Z,21.28
2022-10-01T16:22:35.251Z,21.20
2022-10-01T16:25:07.433Z,21.15
2022-10-01T16:27:45.278Z,21.07
2022-10-01T16:30:21.627Z,21.03
2022-10-01T16:32:49.687Z,21.01
2022-10-01T16:35:21.102Z,20.95
2022-10-01T16:37:53.374Z,20.89
2022-10-01T16:40:24.056Z,20.85
2022-10-01T16:42:52.790Z,20.78
2022-10-01T16:45:24.609Z,20.72
2022-10-01T16:47:53.247Z,20.67
2022-10-01T16:50:22.981Z,20.62
2022-10-01T16:52:55.618Z,20.56
2022-10-01T16:55:26.553Z,20.51
2022-10-01T16:57:55.256Z,20.43
2022-10-01T17:00:25.734Z,20.39
2022-10-01T17:02:53.814Z,20.33
2022-10-01T17:05:25.223Z,20.28
2022-10-01T17:07:54.739Z,20.22
2022-10-01T17:10:24.134Z,20.16
2022-10-01T17:12:51.585Z,20.14
2022-10-01T17:15:23.168Z,20.09
2022-10-01T17:17:50.503Z,20.04
2022-10-01T17:20:18.204Z,19.99
2022-10-01T17:22:46.196Z,19.94
2022-10-01T17:25:18.952Z,19.90
2022-10-01T17:27:47.321Z,19.88
2022-10-01T17:30:15.791Z,19.82
2022-10-01T17:32:43.421Z,19.77
2022-10-01T17:35:12.465Z,19.73
2022-10-01T17:37:40.747Z,19.69
2022-10-01T17:40:10.541Z,19.65
2022-10-01T17:42:39.556Z,19.61
2022-10-01T17:45:11.021Z,19.58
2022-10-01T17:47:43.824Z,19.54
2022-10-01T17:50:11.380Z,19.53
2022-10-01T17:52:38.897Z,19.53
2022-10-01T17:55:07.565Z,19.49
2022-10-01T17:57:35.148Z,19.43
2022-10-01T18:00:05.773Z,19.38
2022-10-01T18:02:42.063Z,19.32
2022-10-01T18:05:12.428Z,19.26
2022-10-01T18:07:41.006Z,19.23
2022-10-01T18:10:12.786Z,19.18
2022-10-01T18:12:40.343Z,19.16
2022-10-01T18:15:10.565Z,19.12
2022-10-01T18:20:25.952Z,19.05
2022-10-01T18:22:53.695Z,19.03
2022-10-01T18:25:20.934Z,19.03
2022-10-01T18:27:50.146Z,19.03
2022-10-01T18:30:20.225Z,19.05
2022-10-01T18:32:56.718Z,19.03
2022-10-01T18:35:31.469Z,19.02
2022-10-01T18:38:04.856Z,18.99
2022-10-01T18:40:39.988Z,18.93
2022-10-01T18:43:13.906Z,18.90
2022-10-01T18:46:09.555Z,18.87
2022-10-01T18:49:06.149Z,18.81
2022-10-01T18:51:52.400Z,18.82
2022-10-01T18:54:52.094Z,18.83
2022-10-01T18:57:42.002Z,18.86
2022-10-01T19:00:12.693Z,18.87
2022-10-01T19:03:21.481Z,18.78
2022-10-01T19:06:22.880Z,18.75
2022-10-01T19:09:21.867Z,18.71
2022-10-01T19:12:04.632Z,18.67
2022-10-01T19:14:55.860Z,18.65
2022-10-01T19:17:55.827Z,18.62
2022-10-01T19:20:54.293Z,18.60
2022-10-01T19:23:53.234Z,18.56
2022-10-01T19:26:31.071Z,18.57
2022-10-01T19:29:23.080Z,18.56
2022-10-01T19:31:57.018Z,18.62
2022-10-01T19:34:32.105Z,18.63
2022-10-01T19:37:10.218Z,18.64
2022-10-01T19:39:41.735Z,18.66
2022-10-01T19:42:17.967Z,18.63
2022-10-01T19:44:57.527Z,18.62
2022-10-01T19:47:41.005Z,18.62
2022-10-01T19:50:20.499Z,18.64
2022-10-01T19:52:53.540Z,18.67
2022-10-01T19:55:24.358Z,18.68
2022-10-01T19:57:52.702Z,18.70
2022-10-01T20:00:23.045Z,18.71
2022-10-01T20:03:00.829Z,18.71
2022-10-01T20:05:32.208Z,18.71
2022-10-01T20:08:12.589Z,18.70
2022-10-01T20:10:45.273Z,18.71
2022-10-01T20:13:32.964Z,18.64
2022-10-01T20:16:18.151Z,18.63
2022-10-01T20:18:57.812Z,18.62
2022-10-01T20:21:43.589Z,18.57
2022-10-01T20:24:33.055Z,18.54
2022-10-01T20:27:16.538Z,18.54
2022-10-01T20:29:52.420Z,18.52
2022-10-01T20:32:28.589Z,18.48
2022-10-01T20:35:12.003Z,18.44
2022-10-01T20:37:57.525Z,18.39
2022-10-01T20:40:32.849Z,18.39
2022-10-01T20:43:07.108Z,18.37
2022-10-01T20:45:35.754Z,18.36
2022-10-01T20:48:11.880Z,18.33
2022-10-01T20:50:44.909Z,18.30
2022-10-01T20:53:31.935Z,18.26
2022-10-01T20:56:12.224Z,18.24
2022-10-01T20:58:46.170Z,18.26
2022-10-01T21:01:20.552Z,18.25
2022-10-01T21:03:56.543Z,18.27
2022-10-01T21:06:33.394Z,18.28
2022-10-01T21:09:15.031Z,18.28
2022-10-01T21:11:49.850Z,18.27
2022-10-01T21:14:27.605Z,18.23
2022-10-01T21:17:29.424Z,18.15
2022-10-01T21:20:16.706Z,18.11
2022-10-01T21:23:05.193Z,18.08
2022-10-01T21:25:53.998Z,18.05
2022-10-01T21:28:55.166Z,18.02
2022-10-01T21:31:41.626Z,18.07
2022-10-01T21:34:18.470Z,18.10
2022-10-01T21:37:01.290Z,18.07
2022-10-01T21:39:35.706Z,18.10
2022-10-01T21:42:16.359Z,18.08
2022-10-01T21:45:22.891Z,18.05
2022-10-01T21:48:13.460Z,18.06
2022-10-01T21:50:55.604Z,18.07
2022-10-01T21:54:00.921Z,18.06
2022-10-01T21:56:50.300Z,18.11
2022-10-01T21:59:40.669Z,18.13
2022-10-01T22:02:30.324Z,18.16
2022-10-01T22:05:09.444Z,18.18
2022-10-01T22:07:48.244Z,18.17
2022-10-01T22:10:23.223Z,18.20
2022-10-01T22:12:58.644Z,18.18
2022-10-01T22:15:32.250Z,18.17
2022-10-01T22:18:06.166Z,18.13
2022-10-01T22:20:35.569Z,18.14
2022-10-01T22:23:09.569Z,18.11
2022-10-01T22:25:46.687Z,18.11
2022-10-01T22:28:21.371Z,18.11
2022-10-01T22:30:53.957Z,18.09
2022-10-01T22:33:31.117Z,18.07
2022-10-01T22:36:06.655Z,18.09
2022-10-01T22:38:42.358Z,18.08
2022-10-01T22:41:19.437Z,18.07
2022-10-01T22:43:46.779Z,18.03
2022-10-01T22:46:46.783Z,17.97
2022-10-01T22:49:38.006Z,17.95
2022-10-01T22:52:25.220Z,17.94
2022-10-01T22:55:10.290Z,17.95
2022-10-01T22:58:13.016Z,17.91
2022-10-01T23:00:53.672Z,17.91
2022-10-01T23:03:37.640Z,17.89
2022-10-01T23:06:15.828Z,17.91
2022-10-01T23:08:50.485Z,17.91
2022-10-01T23:11:27.005Z,17.90
2022-10-01T23:14:09.082Z,17.88
2022-10-01T23:16:50.635Z,17.83
2022-10-01T23:19:42.234Z,17.73
2022-10-01T23:22:24.773Z,17.69
2022-10-01T23:25:13.980Z,17.71
2022-10-01T23:28:03.792Z,17.75
2022-10-01T23:30:46.810Z,17.84
2022-10-01T23:33:37.918Z,17.90
2022-10-01T23:36:24.229Z,17.94
2022-10-01T23:39:40.949Z,17.88
2022-10-01T23:42:27.888Z,17.94
2022-10-01T23:45:14.255Z,17.96
2022-10-01T23:47:54.233Z,17.95
2022-10-01T23:50:30.297Z,17.98
2022-10-01T23:53:09.658Z,17.97
2022-10-01T23:56:07.775Z,17.99
2022-10-01T23:58:46.356Z,17.99
